Time;durP1;ratioP1;P1;durP2;ratioP2;P2;SDS_P1;SDS_P2;PMS_P1;PMS_P2;Temp;Humidity;BMP_temperature;BMP_pressure;BME280_temperature;BME280_humidity;BME280_pressure;Samples;Min_cycle;Max_cycle;Signal;HPM_P1;HPM_P2
2023/01/13 00:04:55;;;;;;;;;;;7.90;99.90;;;6.77;100.00;95517.69;10421290;28;2130;-80
2023/01/13 00:09:58;;;;;;;;;;;8.20;99.90;;;6.77;100.00;95501.66;10418813;28;2894;-80
2023/01/13 00:15:01;;;;;;;;;;;7.90;99.90;;;6.87;100.00;95485.69;10417537;28;2933;-77
2023/01/13 00:20:03;;;;;;;;;;;7.90;99.90;;;6.92;100.00;95498.28;10417773;28;2193;-79
2023/01/13 00:25:06;;;;;;;;;;;8.00;99.90;;;6.95;100.00;95477.19;10416943;28;2881;-78
2023/01/13 00:30:09;;;;;;;;;;;8.00;99.90;;;7.04;100.00;95486.31;10421960;28;2880;-79
2023/01/13 00:35:12;;;;;;;;;;;8.10;99.90;;;7.03;100.00;95467.88;10426396;28;2908;-79
2023/01/13 00:40:14;;;;;;;;;;;8.10;99.90;;;6.94;100.00;95462.22;10423631;28;2861;-77
2023/01/13 00:45:17;;;;;;;;;;;8.10;99.90;;;6.82;100.00;95466.97;10432403;28;3006;-78
2023/01/13 00:50:20;;;;;;;;;;;8.00;99.90;;;6.82;100.00;95466.97;10426731;28;3219;-78
2023/01/13 00:55:22;;;;;;;;;;;8.00;99.90;;;6.81;100.00;95469.88;10426322;28;2127;-79
2023/01/13 01:00:26;;;;;;;;;;;7.90;99.90;;;6.80;100.00;95463.72;10432509;28;2197;-79
2023/01/13 01:05:29;;;;;;;;;;;7.90;99.90;;;6.90;100.00;95457.66;10426428;28;2123;-78
2023/01/13 01:10:31;;;;;;;;;;;7.90;99.90;;;7.02;100.00;95461.72;10428187;28;3383;-78
2023/01/13 01:15:34;;;;;;;;;;;8.00;99.90;;;7.09;100.00;95450.81;10428587;28;2870;-77
2023/01/13 01:20:36;;;;;;;;;;;8.10;99.90;;;7.15;100.00;95460.47;10422151;28;2902;-79
2023/01/13 01:25:39;;;;;;;;;;;8.20;99.90;;;7.22;100.00;95461.03;10423400;28;2858;-80
2023/01/13 01:30:42;;;;;;;;;;;8.20;99.90;;;7.17;100.00;95446.84;10425663;28;2978;-79
2023/01/13 01:35:44;;;;;;;;;;;8.30;99.90;;;7.22;100.00;95449.53;10422844;28;2186;-77
2023/01/13 01:40:47;;;;;;;;;;;8.30;99.90;;;7.20;100.00;95452.47;10423441;28;2917;-78
2023/01/13 01:45:51;;;;;;;;;;;8.30;99.90;;;7.17;100.00;95441.50;10421395;28;2882;-79
2023/01/13 01:50:54;;;;;;;;;;;8.30;99.90;;;7.19;100.00;95431.34;10424260;28;2909;-79
2023/01/13 01:55:56;;;;;;;;;;;8.20;99.90;;;7.15;100.00;95428.41;10450806;28;2960;-79
2023/01/13 02:00:59;;;;;;;;;;;8.20;99.90;;;7.24;100.00;95409.97;10421770;28;3014;-79
2023/01/13 02:06:02;;;;;;;;;;;8.30;99.90;;;7.27;100.00;95414.81;10426424;28;2842;-79
2023/01/13 02:11:04;;;;;;;;;;;8.50;99.90;;;7.17;100.00;95414.75;10418927;28;2194;-79
2023/01/13 02:16:07;;;;;;;;;;;8.30;99.90;;;7.13;100.00;95413.69;10426747;28;2277;-78
2023/01/13 02:21:10;;;;;;;;;;;8.30;99.90;;;7.08;100.00;95416.34;10422995;28;2790;-80
2023/01/13 02:26:12;;;;;;;;;;;8.20;99.90;;;7.18;100.00;95401.13;10416545;28;2827;-80
2023/01/13 02:36:36;;;;;;;;;;;8.20;99.90;;;7.26;100.00;95397.97;10421867;28;2917;-78
2023/01/13 02:46:59;;;;;;;;;;;8.40;99.90;;;7.35;100.00;95389.44;10431595;28;2766;-80
2023/01/13 02:52:02;;;;;;;;;;;8.30;99.90;;;7.39;100.00;95396.69;10421261;28;2178;-77
2023/01/13 02:57:04;;;;;;;;;;;8.40;99.90;;;7.41;100.00;95383.84;10419982;28;2162;-80
2023/01/13 03:02:07;;;;;;;;;;;8.50;99.90;;;7.35;100.00;95379.53;10420725;28;2165;-79
2023/01/13 03:07:11;;;;;;;;;;;8.70;99.90;;;7.37;100.00;95373.94;10416920;28;2822;-80
2023/01/13 03:12:14;;;;;;;;;;;8.70;99.90;;;7.37;100.00;95366.72;10427006;28;2910;-79
2023/01/13 03:17:17;;;;;;;;;;;8.40;99.90;;;7.39;100.00;95358.44;10420063;28;2754;-78
2023/01/13 03:22:21;;;;;;;;;;;8.50;99.90;;;7.43;100.00;95346.13;10419271;28;2928;-79
2023/01/13 03:27:23;;;;;;;;;;;8.50;99.90;;;7.53;100.00;95340.81;10436329;28;2914;-80
2023/01/13 03:32:26;;;;;;;;;;;8.50;99.90;;;7.53;100.00;95349.66;10430229;28;2178;-79
2023/01/13 03:37:29;;;;;;;;;;;8.60;99.90;;;7.55;100.00;95347.50;10425004;28;2917;-79
2023/01/13 03:42:32;;;;;;;;;;;8.60;99.90;;;7.62;100.00;95344.56;10417962;28;2882;-78
2023/01/13 03:47:35;;;;;;;;;;;8.60;99.90;;;7.69;100.00;95347.00;10420976;28;2145;-78
2023/01/13 03:52:37;;;;;;;;;;;8.70;99.90;;;7.72;100.00;95338.44;10417002;28;2862;-80
2023/01/13 03:57:40;;;;;;;;;;;8.70;99.90;;;7.76;100.00;95336.81;10419728;28;2905;-79
2023/01/13 04:02:43;;;;;;;;;;;8.80;99.90;;;7.79;100.00;95336.31;10417126;28;2838;-79
2023/01/13 04:07:46;;;;;;;;;;;8.80;99.90;;;7.80;100.00;95327.22;10425565;28;2906;-79
2023/01/13 04:13:01;;;;;;;;;;;8.80;99.90;;;7.83;100.00;95326.69;10426148;28;2125;-78
2023/01/13 04:18:04;;;;;;;;;;;8.90;99.90;;;7.98;100.00;95328.56;10425693;28;2921;-78
2023/01/13 04:23:06;;;;;;;;;;;8.90;99.90;;;7.97;100.00;95330.44;10427188;28;2882;-79
2023/01/13 04:28:09;;;;;;;;;;;9.00;99.90;;;8.01;100.00;95318.09;10432899;28;2890;-77
2023/01/13 04:33:12;;;;;;;;;;;9.00;99.90;;;7.97;100.00;95317.06;10449961;28;2921;-78
2023/01/13 04:38:15;;;;;;;;;;;9.00;99.90;;;8.07;100.00;95311.69;10445620;28;2898;-80
2023/01/13 04:43:17;;;;;;;;;;;9.10;99.90;;;8.19;100.00;95307.94;10433967;28;2864;-76
2023/01/13 04:48:20;;;;;;;;;;;9.30;99.90;;;8.21;100.00;95303.94;10422639;28;2831;-78
2023/01/13 04:53:23;;;;;;;;;;;9.20;99.90;;;8.24;100.00;95307.94;10426720;28;2934;-79
2023/01/13 04:58:26;;;;;;;;;;;9.30;99.90;;;8.22;100.00;95297.50;10420968;28;3060;-79
2023/01/13 05:03:29;;;;;;;;;;;9.30;99.90;;;8.31;98.88;95303.09;10433359;28;2889;-79
2023/01/13 05:08:32;;;;;;;;;;;9.30;99.90;;;8.41;98.78;95294.28;10426288;28;2198;-79
2023/01/13 05:18:55;;;;;;;;;;;9.40;99.90;;;8.39;100.00;95302.56;10416175;28;2925;-79
2023/01/13 05:29:18;;;;;;;;;;;9.50;99.90;;;8.64;100.00;95294.47;10429482;28;2854;-78
2023/01/13 05:34:21;;;;;;;;;;;9.60;99.90;;;8.65;100.00;95287.22;10428625;28;2889;-80
2023/01/13 05:39:24;;;;;;;;;;;9.70;99.90;;;8.66;100.00;95291.53;10424854;28;2859;-80
2023/01/13 05:44:26;;;;;;;;;;;9.60;99.90;;;8.69;100.00;95290.97;10425070;28;3002;-79
2023/01/13 05:49:29;;;;;;;;;;;9.70;99.90;;;8.76;99.26;95293.38;10425130;28;2882;-81
2023/01/13 05:54:32;;;;;;;;;;;9.70;99.90;;;8.75;100.00;95291.78;10426588;28;2424;-80
2023/01/13 05:59:35;;;;;;;;;;;9.80;99.90;;;8.65;99.98;95289.91;10419360;28;2874;-80
2023/01/13 06:04:38;;;;;;;;;;;9.70;99.90;;;8.66;100.00;95289.66;10432761;28;2985;-80
2023/01/13 06:09:41;;;;;;;;;;;9.70;99.90;;;8.56;100.00;95289.69;10427796;28;2902;-78
2023/01/13 06:14:44;;;;;;;;;;;9.70;99.90;;;8.57;100.00;95279.75;10429113;28;2959;-78
2023/01/13 06:19:47;;;;;;;;;;;9.60;99.90;;;8.72;100.00;95284.28;10430055;28;2296;-81
2023/01/13 06:24:49;;;;;;;;;;;9.60;99.90;;;8.78;100.00;95299.25;10422474;28;2905;-80
2023/01/13 06:29:52;;;;;;;;;;;9.80;99.90;;;8.91;100.00;95293.34;10416259;28;2195;-80
2023/01/13 06:34:56;;;;;;;;;;;9.90;99.90;;;8.91;100.00;95304.84;10431043;28;2181;-79
2023/01/13 06:39:58;;;;;;;;;;;9.90;99.90;;;8.87;100.00;95302.97;10424123;28;2988;-78
2023/01/13 06:45:01;;;;;;;;;;;9.90;99.90;;;8.84;100.00;95303.50;10427725;28;2782;-80
2023/01/13 06:50:04;;;;;;;;;;;9.90;99.90;;;8.79;100.00;95303.56;10422171;28;2879;-80
2023/01/13 06:55:06;;;;;;;;;;;9.90;99.90;;;8.75;100.00;95294.44;10430654;28;2826;-78
2023/01/13 07:00:09;;;;;;;;;;;9.80;99.90;;;8.68;100.00;95294.75;10427415;28;2913;-79
2023/01/13 07:05:12;;;;;;;;;;;9.80;99.90;;;8.65;100.00;95304.13;10422707;28;2138;-80
2023/01/13 07:10:20;;;;;;;;;;;9.80;99.90;;;8.68;100.00;95307.34;10421353;28;2860;-80
2023/01/13 07:15:23;;;;;;;;;;;9.70;99.90;;;8.75;100.00;95299.81;10432491;28;2914;-82
2023/01/13 07:20:26;;;;;;;;;;;9.70;99.90;;;8.82;100.00;95300.31;10426731;28;2162;-80
2023/01/13 07:25:31;;;;;;;;;;;9.80;99.90;;;8.75;100.00;95315.88;10427768;28;2918;-79
2023/01/13 07:30:33;;;;;;;;;;;9.80;99.90;;;8.77;100.00;95301.13;10423716;28;2151;-80
2023/01/13 07:35:36;;;;;;;;;;;9.80;99.90;;;8.74;100.00;95307.03;10426599;28;3035;-80
2023/01/13 07:40:39;;;;;;;;;;;9.80;99.90;;;8.79;100.00;95323.13;10420385;28;2873;-79
2023/01/13 07:45:42;;;;;;;;;;;9.80;99.90;;;8.85;100.00;95323.91;10423088;28;2842;-83
2023/01/13 07:50:45;;;;;;;;;;;9.80;99.90;;;8.88;100.00;95328.72;10429039;28;2820;-81
2023/01/13 07:55:47;;;;;;;;;;;9.80;99.90;;;8.93;100.00;95326.81;10431078;28;3239;-78
2023/01/13 08:00:50;;;;;;;;;;;9.90;99.90;;;9.03;99.71;95317.13;10433760;28;2123;-82
2023/01/13 08:05:53;;;;;;;;;;;9.90;99.90;;;9.03;99.39;95317.91;10435597;28;2150;-87
2023/01/13 08:10:56;;;;;;;;;;;10.00;99.90;;;9.10;99.19;95334.53;10447091;28;2198;-85
2023/01/13 08:15:59;;;;;;;;;;;10.00;99.90;;;9.09;100.00;95299.94;10436685;28;2850;-81
2023/01/13 08:21:02;;;;;;;;;;;10.10;99.90;;;9.12;100.00;95320.84;10427457;28;2155;-83
2023/01/13 08:26:05;;;;;;;;;;;10.10;99.90;;;9.13;100.00;95328.59;10424235;28;2119;-80
2023/01/13 08:31:07;;;;;;;;;;;10.10;99.90;;;9.24;100.00;95321.31;10430208;28;2744;-80
2023/01/13 08:36:11;;;;;;;;;;;10.10;99.90;;;9.34;100.00;95336.56;10430651;28;3042;-79
2023/01/13 08:41:13;;;;;;;;;;;10.20;99.90;;;9.47;99.06;95327.91;10423108;28;2904;-78
2023/01/13 08:46:16;;;;;;;;;;;10.40;99.90;;;9.54;96.79;95317.66;10419665;28;2943;-78
2023/01/13 08:51:19;;;;;;;;;;;10.40;99.90;;;9.65;95.74;95338.00;10428192;28;2895;-78
2023/01/13 08:56:22;;;;;;;;;;;10.60;99.90;;;9.65;95.19;95345.25;10434244;28;2910;-78
2023/01/13 09:01:24;;;;;;;;;;;10.60;99.90;;;9.74;95.10;95339.03;10432429;28;2964;-79
2023/01/13 09:06:27;;;;;;;;;;;10.60;99.90;;;9.81;94.49;95335.22;10427440;28;2893;-78
2023/01/13 09:16:51;;;;;;;;;;;10.80;99.90;;;10.06;92.62;95335.03;10435981;28;2890;-79
2023/01/13 09:21:53;;;;;;;;;;;10.90;99.90;;;10.07;90.79;95347.38;10435982;28;3007;-77
2023/01/13 09:26:56;;;;;;;;;;;11.10;99.90;;;10.14;91.45;95358.59;10442421;28;2771;-79
2023/01/13 09:31:59;;;;;;;;;;;;;;;10.27;89.48;95357.97;10432969;28;2818;-81
2023/01/13 09:37:02;;;;;;;;;;;11.10;99.90;;;10.31;87.85;95352.03;10432228;28;2839;-77
2023/01/13 09:47:25;;;;;;;;;;;11.30;99.90;;;10.49;85.72;95345.97;10438263;28;2916;-78
2023/01/13 09:52:28;;;;;;;;;;;11.40;99.90;;;10.50;84.81;95345.69;10436853;28;3000;-77
2023/01/13 09:57:31;;;;;;;;;;;11.40;99.90;;;10.78;83.95;95344.06;10427698;28;2211;-78
2023/01/13 10:02:34;;;;;;;;;;;11.60;99.90;;;10.91;83.56;95344.47;10421048;28;2194;-78
2023/01/13 10:07:36;;;;;;;;;;;11.70;99.90;;;10.83;85.76;95327.88;10440192;28;3034;-79
2023/01/13 10:17:59;;;;;;;;;;;11.70;99.90;;;10.37;90.87;95313.28;10438404;28;2186;-78
2023/01/13 10:23:02;;;;;;;;;;;11.50;99.90;;;10.29;91.80;95312.81;10429625;28;2934;-76
2023/01/13 10:28:05;;;;;;;;;;;11.40;99.90;;;10.24;93.16;95280.66;10429630;28;3008;-76
2023/01/13 10:33:09;;;;;;;;;;;11.20;99.90;;;10.60;92.51;95322.50;10439478;28;2889;-79
2023/01/13 10:38:12;;;;;;;;;;;11.40;99.90;;;10.59;92.05;95299.38;10429338;28;2926;-77
2023/01/13 10:43:14;;;;;;;;;;;11.50;99.90;;;10.60;92.79;95295.59;10427419;28;2968;-76
2023/01/13 10:48:17;;;;;;;;;;;11.60;99.90;;;10.99;91.40;95300.81;10436614;28;2949;-77
2023/01/13 10:53:20;;;;;;;;;;;11.80;99.90;;;11.32;90.38;95299.03;10433018;28;2119;-77
2023/01/13 10:58:27;;;;;;;;;;;12.00;99.90;;;11.45;88.74;95284.06;10438208;28;2905;-76
2023/01/13 11:03:30;;;;;;;;;;;12.30;99.90;;;11.78;86.52;95282.25;10424504;28;2779;-77
2023/01/13 11:08:32;;;;;;;;;;;12.50;99.90;;;12.00;85.18;95276.28;10423339;28;3309;-77
2023/01/13 11:13:35;;;;;;;;;;;12.80;99.90;;;11.92;85.39;95280.44;10424075;28;2862;-77
2023/01/13 11:18:39;;;;;;;;;;;12.80;99.90;;;11.93;86.13;95284.75;10429912;28;2839;-76
2023/01/13 11:23:41;;;;;;;;;;;12.80;99.90;;;11.25;100.00;95296.72;10419640;28;2205;-79
2023/01/13 11:28:44;;;;;;;;;;;12.60;99.90;;;10.68;100.00;95290.41;10417751;28;2162;-77
2023/01/13 11:33:47;;;;;;;;;;;11.90;99.90;;;10.91;100.00;95288.00;10425902;28;2886;-78
2023/01/13 11:38:49;;;;;;;;;;;11.80;99.90;;;11.05;100.00;95286.22;10419755;28;2889;-78
2023/01/13 11:43:52;;;;;;;;;;;11.90;99.90;;;11.02;100.00;95273.34;10420757;28;2944;-77
2023/01/13 11:48:55;;;;;;;;;;;12.00;99.90;;;10.96;100.00;95274.50;10422211;28;2986;-77
2023/01/13 11:53:58;;;;;;;;;;;11.90;99.90;;;11.13;100.00;95282.88;10428573;28;2858;-78
2023/01/13 11:59:01;;;;;;;;;;;12.00;99.90;;;10.96;100.00;95287.94;10424243;28;2783;-77
2023/01/13 12:04:04;;;;;;;;;;;11.90;99.90;;;10.90;100.00;95281.03;10423568;28;2896;-77
2023/01/13 12:09:10;;;;;;;;;;;11.80;99.90;;;10.89;100.00;95276.75;10424437;28;2878;-77
2023/01/13 12:14:13;;;;;;;;;;;11.80;99.90;;;10.90;100.00;95295.28;10426568;28;2918;-78
2023/01/13 12:19:15;;;;;;;;;;;11.80;99.90;;;10.94;100.00;95304.38;10418595;28;2879;-77
2023/01/13 12:24:18;;;;;;;;;;;11.80;99.90;;;11.05;100.00;95308.53;10426040;28;2994;-78
2023/01/13 12:29:21;;;;;;;;;;;11.90;99.90;;;11.14;100.00;95305.22;10442416;28;2998;-77
2023/01/13 12:34:24;;;;;;;;;;;12.00;99.90;;;10.53;100.00;95312.88;10431126;28;2966;-78
2023/01/13 12:39:27;;;;;;;;;;;11.70;99.90;;;10.46;100.00;95311.59;10426177;28;2953;-78
2023/01/13 12:44:30;;;;;;;;;;;11.50;99.90;;;10.38;100.00;95310.34;10446498;28;2932;-78
2023/01/13 12:49:32;;;;;;;;;;;11.50;99.90;;;10.44;100.00;95319.97;10430394;28;2889;-78
2023/01/13 12:54:35;;;;;;;;;;;11.40;99.90;;;10.44;100.00;95303.03;10430827;28;3045;-78
2023/01/13 12:59:38;;;;;;;;;;;11.40;99.90;;;10.04;100.00;95318.38;10436090;28;2789;-76
2023/01/13 13:04:41;;;;;;;;;;;11.20;99.90;;;10.00;100.00;95320.03;10423680;28;2889;-76
2023/01/13 13:09:43;;;;;;;;;;;11.00;99.90;;;9.92;100.00;95328.69;10434950;28;2906;-78
2023/01/13 13:14:46;;;;;;;;;;;10.90;99.90;;;9.75;100.00;95329.88;10431906;28;2905;-78
2023/01/13 13:19:49;;;;;;;;;;;10.90;99.90;;;9.78;100.00;95327.72;10438158;28;2142;-77
2023/01/13 13:24:52;;;;;;;;;;;10.80;99.90;;;9.92;100.00;95312.56;10435521;28;2925;-78
2023/01/13 13:29:55;;;;;;;;;;;10.80;99.90;;;9.66;100.00;95307.38;10428202;28;2980;-77
2023/01/13 13:34:57;;;;;;;;;;;10.80;99.90;;;9.67;100.00;95311.69;10434510;28;2866;-79
2023/01/13 13:50:42;;;;;;;;;;;10.90;99.90;;;9.91;100.00;95322.50;10426501;28;2846;-78
2023/01/13 13:55:44;;;;;;;;;;;10.90;99.90;;;9.87;100.00;95352.91;10433384;28;2530;-79
2023/01/13 14:00:47;;;;;;;;;;;10.90;99.90;;;9.86;100.00;95343.22;10442796;28;3003;-81
2023/01/13 14:05:50;;;;;;;;;;;10.80;99.90;;;9.69;100.00;95349.78;10439850;28;2981;-77
2023/01/13 14:10:53;;;;;;;;;;;10.70;99.90;;;8.70;100.00;95474.00;10435746;28;3005;-80
2023/01/13 14:15:56;;;;;;;;;;;7.40;99.90;;;5.13;100.00;95525.72;10431867;28;2934;-78
2023/01/13 14:20:58;;;;;;;;;;;7.30;99.90;;;4.64;100.00;95546.00;10432723;28;3259;-79
2023/01/13 14:26:01;;;;;;;;;;;5.80;99.90;;;4.55;100.00;95574.91;10437368;28;2225;-77
2023/01/13 14:31:04;;;;;;;;;;;5.70;99.90;;;4.45;100.00;95565.91;10448303;28;3017;-80
2023/01/13 14:36:07;;;;;;;;;;;5.50;99.90;;;4.37;100.00;95569.78;10444471;28;2624;-83
2023/01/13 14:41:09;;;;;;;;;;;5.40;99.90;;;4.37;100.00;95563.66;10440139;28;2894;-78
2023/01/13 14:46:13;;;;;;;;;;;5.40;99.90;;;4.44;100.00;95545.69;10442857;28;2865;-78
2023/01/13 14:51:16;;;;;;;;;;;5.40;99.90;;;4.53;100.00;95558.38;10449681;28;2989;-79
2023/01/13 14:56:18;;;;;;;;;;;5.50;99.90;;;4.62;100.00;95556.09;10433956;28;2170;-79
2023/01/13 15:01:21;;;;;;;;;;;5.60;99.90;;;4.62;100.00;95561.44;10439956;28;3036;-78
2023/01/13 15:06:24;;;;;;;;;;;5.70;99.90;;;4.75;100.00;95571.75;10432699;28;2891;-77
2023/01/13 15:11:27;;;;;;;;;;;5.70;99.90;;;4.79;100.00;95562.25;10426801;28;2902;-78
2023/01/13 15:16:30;;;;;;;;;;;5.80;99.90;;;4.75;100.00;95587.75;10426552;28;2869;-77
2023/01/13 15:21:36;;;;;;;;;;;5.80;99.90;;;4.60;100.00;95608.78;10429986;28;2890;-78
2023/01/13 15:26:39;;;;;;;;;;;5.70;99.90;;;4.55;100.00;95606.84;10432566;28;2833;-79
2023/01/13 15:31:42;;;;;;;;;;;5.60;99.90;;;4.52;100.00;95603.88;10431029;28;3021;-79
2023/01/13 15:36:44;;;;;;;;;;;5.60;99.90;;;4.49;100.00;95602.47;10429981;28;2811;-78
2023/01/13 15:47:07;;;;;;;;;;;5.50;99.90;;;4.31;100.00;95622.09;10417360;28;2958;-79
2023/01/13 15:52:10;;;;;;;;;;;5.50;99.90;;;4.12;100.00;95620.66;10429149;28;2913;-78
2023/01/13 15:57:12;;;;;;;;;;;5.40;99.90;;;3.99;100.00;95620.94;10437035;28;2930;-78
2023/01/13 16:02:17;;;;;;;;;;;5.30;99.90;;;3.85;100.00;95636.34;10432572;28;3005;-76
2023/01/13 16:07:19;;;;;;;;;;;5.20;99.90;;;3.72;100.00;95650.72;10424548;28;2847;-78
2023/01/13 16:12:22;;;;;;;;;;;5.10;99.90;;;3.75;100.00;95662.72;10431587;28;2919;-79
2023/01/13 16:17:28;;;;;;;;;;;5.10;99.90;;;3.92;100.00;95665.47;10424018;28;2191;-78
2023/01/13 16:22:30;;;;;;;;;;;5.10;99.90;;;4.07;100.00;95676.44;10425705;28;2900;-80
2023/01/13 16:27:33;;;;;;;;;;;5.10;99.90;;;4.18;100.00;95691.56;10434274;28;2830;-80
2023/01/13 16:32:36;;;;;;;;;;;5.20;99.90;;;4.28;100.00;95691.78;10436500;28;2186;-75
2023/01/13 16:37:39;;;;;;;;;;;5.30;99.90;;;4.43;100.00;95691.25;10442638;28;2139;-79
2023/01/13 16:42:41;;;;;;;;;;;5.40;99.90;;;4.46;100.00;95692.66;10431116;28;2945;-78
2023/01/13 16:47:44;;;;;;;;;;;5.50;99.90;;;4.57;100.00;95691.78;10418515;28;2885;-75
2023/01/13 16:52:47;;;;;;;;;;;5.60;99.90;;;4.66;100.00;95701.03;10416381;28;2914;-76
2023/01/13 16:57:50;;;;;;;;;;;5.90;99.90;;;4.74;100.00;95692.66;10418537;28;2791;-77
2023/01/13 17:02:52;;;;;;;;;;;5.80;99.90;;;4.88;100.00;95699.28;10421034;28;2847;-76
2023/01/13 17:07:56;;;;;;;;;;;5.90;99.90;;;4.98;100.00;95704.00;10426857;28;2926;-76
2023/01/13 17:12:58;;;;;;;;;;;6.20;99.90;;;5.03;100.00;95705.94;10425965;28;2902;-77
2023/01/13 17:18:15;;;;;;;;;;;6.00;99.90;;;5.08;100.00;95730.81;10425340;28;2845;-76
2023/01/13 17:23:18;;;;;;;;;;;6.10;99.90;;;5.14;100.00;95726.38;10426001;28;2838;-77
2023/01/13 17:28:21;;;;;;;;;;;6.10;99.90;;;5.08;100.00;95712.16;10428866;28;2897;-77
2023/01/13 17:33:23;;;;;;;;;;;6.20;99.90;;;5.03;100.00;95721.94;10424365;28;2883;-75
2023/01/13 17:38:26;;;;;;;;;;;6.20;99.90;;;4.95;100.00;95730.28;10423117;28;2870;-75
2023/01/13 17:43:29;;;;;;;;;;;6.10;99.90;;;4.85;100.00;95736.25;10424611;28;2244;-74
2023/01/13 17:48:31;;;;;;;;;;;6.10;99.90;;;4.78;100.00;95738.25;10416645;28;2924;-76
2023/01/13 17:53:34;;;;;;;;;;;6.00;99.90;;;4.71;100.00;95754.38;10426961;28;2927;-76
2023/01/13 17:58:37;;;;;;;;;;;5.90;99.90;;;4.70;100.00;95773.22;10435902;28;2276;-78
2023/01/13 18:03:40;;;;;;;;;;;5.90;99.90;;;4.80;100.00;95771.59;10425194;28;2918;-76
2023/01/13 18:08:42;;;;;;;;;;;5.90;99.90;;;4.78;100.00;95773.69;10425731;28;3008;-76
2023/01/13 18:13:45;;;;;;;;;;;5.90;99.90;;;4.76;100.00;95769.63;10428536;28;2828;-76
2023/01/13 18:18:48;;;;;;;;;;;5.90;99.90;;;4.78;100.00;95772.88;10439476;28;2977;-77
2023/01/13 18:29:11;;;;;;;;;;;6.00;99.90;;;4.85;100.00;95777.03;10397796;28;2177;-75
2023/01/13 18:34:14;;;;;;;;;;;6.00;99.90;;;4.86;100.00;95778.63;10436656;28;2902;-75
2023/01/13 18:39:16;;;;;;;;;;;6.00;99.90;;;4.75;100.00;95787.47;10445772;28;2972;-75
2023/01/13 18:44:19;;;;;;;;;;;6.00;99.90;;;4.75;100.00;95800.78;10440888;28;2950;-76
2023/01/13 18:49:22;;;;;;;;;;;5.90;99.90;;;4.95;100.00;95807.53;10433810;28;2921;-75
2023/01/13 18:54:26;;;;;;;;;;;6.00;99.90;;;5.11;100.00;95806.81;10425222;28;2173;-74
2023/01/13 18:59:29;;;;;;;;;;;6.10;99.90;;;5.16;100.00;95796.25;10438515;28;2910;-74
2023/01/13 19:04:32;;;;;;;;;;;6.20;99.90;;;5.03;100.00;95797.34;10437446;28;3037;-76
2023/01/13 19:09:35;;;;;;;;;;;7.40;99.90;;;4.83;100.00;95792.41;10440661;28;3298;-76
2023/01/13 19:14:39;;;;;;;;;;;6.10;99.90;;;4.67;100.00;95806.47;10440765;28;2847;-75
2023/01/13 19:19:42;;;;;;;;;;;5.90;99.90;;;4.68;100.00;95810.75;10442630;28;2977;-76
2023/01/13 19:24:45;;;;;;;;;;;5.80;99.90;;;4.55;100.00;95800.38;10442827;28;2917;-76
2023/01/13 19:29:48;;;;;;;;;;;5.80;99.90;;;4.44;100.00;95809.19;10434224;28;3303;-75
2023/01/13 19:34:57;;;;;;;;;;;5.70;99.90;;;4.29;100.00;95810.47;10434646;28;2874;-75
2023/01/13 19:40:03;;;;;;;;;;;5.60;99.90;;;4.21;100.00;95816.16;10438899;28;2929;-75
2023/01/13 19:50:26;;;;;;;;;;;5.40;99.90;;;4.27;100.00;95835.72;10430125;28;2874;-75
2023/01/13 19:55:30;;;;;;;;;;;5.40;99.90;;;4.45;100.00;95842.72;10443746;28;2914;-73
2023/01/13 20:00:33;;;;;;;;;;;5.50;99.90;;;4.63;100.00;95863.91;10441131;28;2786;-78
2023/01/13 20:05:36;;;;;;;;;;;5.60;99.90;;;4.80;100.00;95883.44;10441857;28;2906;-75
2023/01/13 20:10:39;;;;;;;;;;;5.80;99.90;;;4.87;100.00;95884.13;10439758;28;2861;-78
2023/01/13 20:15:42;;;;;;;;;;;5.80;99.90;;;4.87;100.00;95884.13;10443118;28;2954;-80
2023/01/13 20:20:45;;;;;;;;;;;5.90;99.90;;;4.91;100.00;95902.31;10441791;28;2973;-76
2023/01/13 20:25:47;;;;;;;;;;;5.90;99.90;;;4.92;100.00;95927.91;10431355;28;3092;-77
2023/01/13 20:30:50;;;;;;;;;;;5.90;99.90;;;4.91;100.00;95963.59;10439886;28;2905;-76
2023/01/13 20:35:52;;;;;;;;;;;5.90;99.90;;;4.37;100.00;95968.19;10441578;28;2297;-78
2023/01/13 20:40:55;;;;;;;;;;;6.40;99.90;;;3.87;100.00;95979.16;10441968;28;3038;-76
2023/01/13 20:45:58;;;;;;;;;;;5.00;99.90;;;3.67;100.00;95966.94;10440724;28;2827;-76
2023/01/13 20:51:01;;;;;;;;;;;4.80;99.90;;;3.61;100.00;95965.19;10435151;28;2190;-76
2023/01/13 20:56:04;;;;;;;;;;;4.60;99.90;;;3.52;100.00;95962.03;10435984;28;2901;-77
2023/01/13 21:01:06;;;;;;;;;;;4.60;99.90;;;3.58;100.00;95975.47;10442700;28;2914;-77
2023/01/13 21:06:09;;;;;;;;;;;4.50;99.90;;;3.70;100.00;95985.13;10446173;28;2942;-76
2023/01/13 21:11:13;;;;;;;;;;;4.70;99.90;;;3.72;100.00;95983.03;10452207;28;2851;-76
2023/01/13 21:16:16;;;;;;;;;;;4.70;99.90;;;3.78;100.00;95963.53;10450040;28;2897;-76
2023/01/13 21:21:19;;;;;;;;;;;4.80;99.90;;;3.91;100.00;95980.34;10436179;28;2889;-75
2023/01/13 21:26:22;;;;;;;;;;;4.90;99.90;;;3.88;100.00;95992.25;10437306;28;2919;-75
2023/01/13 21:31:25;;;;;;;;;;;4.90;99.90;;;3.83;100.00;95999.28;10443048;28;2899;-75
2023/01/13 21:36:28;;;;;;;;;;;4.90;99.90;;;3.73;100.00;95999.81;10436546;28;2109;-75
2023/01/13 21:52:11;;;;;;;;;;;4.60;99.90;;;3.14;100.00;96033.22;10439448;28;2976;-76
2023/01/13 21:57:14;;;;;;;;;;;4.40;99.90;;;3.07;100.00;96043.09;10435463;28;2974;-75
2023/01/13 22:07:33;;;;;;;;;;;4.20;99.90;;;2.86;100.00;96062.88;10436105;28;2159;-76
2023/01/13 22:12:36;;;;;;;;;;;4.10;99.90;;;2.80;100.00;96063.75;10445396;28;2915;-76
2023/01/13 22:17:41;;;;;;;;;;;4.00;99.90;;;2.74;100.00;96085.88;10433252;28;2325;-76
2023/01/13 22:22:43;;;;;;;;;;;4.00;99.90;;;2.72;100.00;96100.16;10435243;28;2920;-75
2023/01/13 22:27:47;;;;;;;;;;;3.90;99.90;;;2.71;100.00;96092.44;10427847;28;2846;-76
2023/01/13 22:32:50;;;;;;;;;;;3.90;99.90;;;2.68;100.00;96098.19;10423442;28;2930;-76
2023/01/13 22:37:52;;;;;;;;;;;3.90;99.90;;;2.56;100.00;96095.41;10432143;28;3148;-76
2023/01/13 22:42:55;;;;;;;;;;;4.10;99.90;;;2.52;100.00;96096.03;10430358;28;2202;-75
2023/01/13 22:47:58;;;;;;;;;;;2.90;99.90;;;2.47;100.00;96101.97;10423019;28;2878;-75
2023/01/13 22:53:01;;;;;;;;;;;3.20;99.90;;;2.46;100.00;96105.66;10422667;28;2945;-77
2023/01/13 22:58:03;;;;;;;;;;;3.60;99.90;;;2.48;100.00;96103.59;10420434;28;2178;-76
2023/01/13 23:03:07;;;;;;;;;;;3.70;99.90;;;2.52;100.00;96101.34;10421264;28;2946;-77
2023/01/13 23:08:10;;;;;;;;;;;3.70;99.90;;;2.72;100.00;96110.78;10422543;28;2218;-77
2023/01/13 23:13:13;;;;;;;;;;;3.80;99.90;;;2.90;100.00;96103.91;10422627;28;2964;-75
2023/01/13 23:18:16;;;;;;;;;;;3.90;99.90;;;3.12;100.00;96096.38;10423941;28;2976;-74
2023/01/13 23:23:18;;;;;;;;;;;4.40;99.90;;;3.09;100.00;96105.59;10433088;28;2858;-73
2023/01/13 23:28:21;;;;;;;;;;;4.20;99.90;;;3.14;100.00;96107.59;10430059;28;2829;-74
2023/01/13 23:33:24;;;;;;;;;;;4.30;99.90;;;3.25;100.00;96090.94;10429723;28;3122;-75
2023/01/13 23:38:26;;;;;;;;;;;4.30;99.90;;;3.45;100.00;96098.72;10429347;28;3194;-73
2023/01/13 23:43:29;;;;;;;;;;;4.40;99.90;;;3.45;100.00;96096.06;10426935;28;2225;-75
2023/01/13 23:48:32;;;;;;;;;;;4.30;99.90;;;3.55;100.00;96077.72;10429136;28;2211;-78
2023/01/13 23:53:36;;;;;;;;;;;4.60;99.90;;;3.54;100.00;96076.09;10417051;28;3334;-75
2023/01/13 23:58:42;;;;;;;;;;;4.60;99.90;;;3.61;100.00;96068.06;10424721;28;3151;-74
